sensor_id;sensor_type;location;lat;lon;timestamp;P1;P2;P0
81640;PMS5003;71053;50.722;-1.944;2023-07-13T00:01:30;4;4;
81640;PMS5003;71053;50.722;-1.944;2023-07-13T00:03:56;5;5;
81640;PMS5003;71053;50.722;-1.944;2023-07-13T00:06:21;5;4;
81640;PMS5003;71053;50.722;-1.944;2023-07-13T00:08:46;3;3;
81640;PMS5003;71053;50.722;-1.944;2023-07-13T00:11:12;5;5;
81640;PMS5003;71053;50.722;-1.944;2023-07-13T00:13:37;4;4;
81640;PMS5003;71053;50.722;-1.944;2023-07-13T00:16:02;4;4;
81640;PMS5003;71053;50.722;-1.944;2023-07-13T00:18:27;3;3;
81640;PMS5003;71053;50.722;-1.944;2023-07-13T00:20:52;5;5;
81640;PMS5003;71053;50.722;-1.944;2023-07-13T00:23:17;4;4;
81640;PMS5003;71053;50.722;-1.944;2023-07-13T00:25:43;2;2;
81640;PMS5003;71053;50.722;-1.944;2023-07-13T00:28:08;3;3;
81640;PMS5003;71053;50.722;-1.944;2023-07-13T00:30:33;4;3;
81640;PMS5003;71053;50.722;-1.944;2023-07-13T00:32:58;3;2;
81640;PMS5003;71053;50.722;-1.944;2023-07-13T00:35:25;3;3;
81640;PMS5003;71053;50.722;-1.944;2023-07-13T00:37:49;4;4;
81640;PMS5003;71053;50.722;-1.944;2023-07-13T00:40:15;3;3;
81640;PMS5003;71053;50.722;-1.944;2023-07-13T00:42:39;2;2;
81640;PMS5003;71053;50.722;-1.944;2023-07-13T00:45:05;5;5;
81640;PMS5003;71053;50.722;-1.944;2023-07-13T00:47:29;4;3;
81640;PMS5003;71053;50.722;-1.944;2023-07-13T00:49:54;4;4;
81640;PMS5003;71053;50.722;-1.944;2023-07-13T00:52:20;7;6;
81640;PMS5003;71053;50.722;-1.944;2023-07-13T00:54:45;6;6;
81640;PMS5003;71053;50.722;-1.944;2023-07-13T00:57:11;4;4;
81640;PMS5003;71053;50.722;-1.944;2023-07-13T00:59:36;4;4;
81640;PMS5003;71053;50.722;-1.944;2023-07-13T01:02:00;4;4;
81640;PMS5003;71053;50.722;-1.944;2023-07-13T01:04:26;4;4;
81640;PMS5003;71053;50.722;-1.944;2023-07-13T01:06:51;3;3;
81640;PMS5003;71053;50.722;-1.944;2023-07-13T01:09:16;6;5;
81640;PMS5003;71053;50.722;-1.944;2023-07-13T01:11:41;4;4;
81640;PMS5003;71053;50.722;-1.944;2023-07-13T01:14:07;3;3;
81640;PMS5003;71053;50.722;-1.944;2023-07-13T01:16:32;2;2;
81640;PMS5003;71053;50.722;-1.944;2023-07-13T01:18:57;4;4;
81640;PMS5003;71053;50.722;-1.944;2023-07-13T01:21:22;5;4;
81640;PMS5003;71053;50.722;-1.944;2023-07-13T01:23:47;4;4;
81640;PMS5003;71053;50.722;-1.944;2023-07-13T01:26:12;4;4;
81640;PMS5003;71053;50.722;-1.944;2023-07-13T01:28:37;5;5;
81640;PMS5003;71053;50.722;-1.944;2023-07-13T01:31:03;6;5;
81640;PMS5003;71053;50.722;-1.944;2023-07-13T01:33:28;5;4;
81640;PMS5003;71053;50.722;-1.944;2023-07-13T01:35:53;5;5;
81640;PMS5003;71053;50.722;-1.944;2023-07-13T01:38:19;4;4;
81640;PMS5003;71053;50.722;-1.944;2023-07-13T01:40:43;4;4;
81640;PMS5003;71053;50.722;-1.944;2023-07-13T01:43:08;4;4;
81640;PMS5003;71053;50.722;-1.944;2023-07-13T01:45:34;2;2;
81640;PMS5003;71053;50.722;-1.944;2023-07-13T01:47:59;4;4;
81640;PMS5003;71053;50.722;-1.944;2023-07-13T01:50:24;4;4;
81640;PMS5003;71053;50.722;-1.944;2023-07-13T01:52:49;4;4;
81640;PMS5003;71053;50.722;-1.944;2023-07-13T01:55:15;4;4;
81640;PMS5003;71053;50.722;-1.944;2023-07-13T01:57:40;2;2;
81640;PMS5003;71053;50.722;-1.944;2023-07-13T02:00:06;3;3;
81640;PMS5003;71053;50.722;-1.944;2023-07-13T02:02:30;3;3;
81640;PMS5003;71053;50.722;-1.944;2023-07-13T02:04:56;4;4;
81640;PMS5003;71053;50.722;-1.944;2023-07-13T02:07:21;4;4;
81640;PMS5003;71053;50.722;-1.944;2023-07-13T02:09:46;4;4;
81640;PMS5003;71053;50.722;-1.944;2023-07-13T02:12:11;4;4;
81640;PMS5003;71053;50.722;-1.944;2023-07-13T02:14:37;3;3;
81640;PMS5003;71053;50.722;-1.944;2023-07-13T02:17:02;3;3;
81640;PMS5003;71053;50.722;-1.944;2023-07-13T02:19:27;5;4;
81640;PMS5003;71053;50.722;-1.944;2023-07-13T02:21:53;4;4;
81640;PMS5003;71053;50.722;-1.944;2023-07-13T02:24:18;4;4;
81640;PMS5003;71053;50.722;-1.944;2023-07-13T02:26:43;6;4;
81640;PMS5003;71053;50.722;-1.944;2023-07-13T02:29:08;5;5;
81640;PMS5003;71053;50.722;-1.944;2023-07-13T02:31:34;6;6;
81640;PMS5003;71053;50.722;-1.944;2023-07-13T02:33:59;3;3;
81640;PMS5003;71053;50.722;-1.944;2023-07-13T02:36:24;6;6;
81640;PMS5003;71053;50.722;-1.944;2023-07-13T02:38:49;4;4;
81640;PMS5003;71053;50.722;-1.944;2023-07-13T02:41:14;4;4;
81640;PMS5003;71053;50.722;-1.944;2023-07-13T02:43:40;6;5;
81640;PMS5003;71053;50.722;-1.944;2023-07-13T02:46:05;4;4;
81640;PMS5003;71053;50.722;-1.944;2023-07-13T02:48:30;4;4;
81640;PMS5003;71053;50.722;-1.944;2023-07-13T02:50:55;5;5;
81640;PMS5003;71053;50.722;-1.944;2023-07-13T02:53:20;6;5;
81640;PMS5003;71053;50.722;-1.944;2023-07-13T02:55:46;3;3;
81640;PMS5003;71053;50.722;-1.944;2023-07-13T02:58:11;6;6;
81640;PMS5003;71053;50.722;-1.944;2023-07-13T03:00:38;5;5;
81640;PMS5003;71053;50.722;-1.944;2023-07-13T03:03:02;4;4;
81640;PMS5003;71053;50.722;-1.944;2023-07-13T03:05:27;5;5;
81640;PMS5003;71053;50.722;-1.944;2023-07-13T03:07:52;5;5;
81640;PMS5003;71053;50.722;-1.944;2023-07-13T03:10:18;6;6;
81640;PMS5003;71053;50.722;-1.944;2023-07-13T03:12:43;3;3;
81640;PMS5003;71053;50.722;-1.944;2023-07-13T03:15:08;8;7;
81640;PMS5003;71053;50.722;-1.944;2023-07-13T03:17:33;6;6;
81640;PMS5003;71053;50.722;-1.944;2023-07-13T03:19:59;8;6;
81640;PMS5003;71053;50.722;-1.944;2023-07-13T03:22:24;5;5;
81640;PMS5003;71053;50.722;-1.944;2023-07-13T03:24:49;5;4;
81640;PMS5003;71053;50.722;-1.944;2023-07-13T03:27:14;5;5;
81640;PMS5003;71053;50.722;-1.944;2023-07-13T03:29:39;4;4;
81640;PMS5003;71053;50.722;-1.944;2023-07-13T03:32:05;4;4;
81640;PMS5003;71053;50.722;-1.944;2023-07-13T03:34:30;6;6;
81640;PMS5003;71053;50.722;-1.944;2023-07-13T03:36:55;4;3;
81640;PMS5003;71053;50.722;-1.944;2023-07-13T03:39:20;3;3;
81640;PMS5003;71053;50.722;-1.944;2023-07-13T03:41:45;3;3;
81640;PMS5003;71053;50.722;-1.944;2023-07-13T03:44:11;5;5;
81640;PMS5003;71053;50.722;-1.944;2023-07-13T03:46:36;5;4;
81640;PMS5003;71053;50.722;-1.944;2023-07-13T03:49:01;7;7;
81640;PMS5003;71053;50.722;-1.944;2023-07-13T03:51:26;4;4;
81640;PMS5003;71053;50.722;-1.944;2023-07-13T03:53:52;5;5;
81640;PMS5003;71053;50.722;-1.944;2023-07-13T03:56:17;5;5;
81640;PMS5003;71053;50.722;-1.944;2023-07-13T03:58:43;4;4;
81640;PMS5003;71053;50.722;-1.944;2023-07-13T04:01:08;6;6;
81640;PMS5003;71053;50.722;-1.944;2023-07-13T04:03:33;4;4;
81640;PMS5003;71053;50.722;-1.944;2023-07-13T04:05:58;5;5;
81640;PMS5003;71053;50.722;-1.944;2023-07-13T04:08:23;5;5;
81640;PMS5003;71053;50.722;-1.944;2023-07-13T04:10:48;2;2;
81640;PMS5003;71053;50.722;-1.944;2023-07-13T04:13:13;7;7;
81640;PMS5003;71053;50.722;-1.944;2023-07-13T04:15:39;4;4;
81640;PMS5003;71053;50.722;-1.944;2023-07-13T04:18:04;4;4;
81640;PMS5003;71053;50.722;-1.944;2023-07-13T04:20:29;6;6;
81640;PMS5003;71053;50.722;-1.944;2023-07-13T04:22:54;5;5;
81640;PMS5003;71053;50.722;-1.944;2023-07-13T04:25:20;4;4;
81640;PMS5003;71053;50.722;-1.944;2023-07-13T04:27:45;3;3;
81640;PMS5003;71053;50.722;-1.944;2023-07-13T04:30:10;6;6;
81640;PMS5003;71053;50.722;-1.944;2023-07-13T04:32:35;3;3;
81640;PMS5003;71053;50.722;-1.944;2023-07-13T04:35:00;6;6;
81640;PMS5003;71053;50.722;-1.944;2023-07-13T04:37:26;5;5;
81640;PMS5003;71053;50.722;-1.944;2023-07-13T04:39:51;4;4;
81640;PMS5003;71053;50.722;-1.944;2023-07-13T04:42:17;3;3;
81640;PMS5003;71053;50.722;-1.944;2023-07-13T04:44:46;5;4;
81640;PMS5003;71053;50.722;-1.944;2023-07-13T04:47:07;5;5;
81640;PMS5003;71053;50.722;-1.944;2023-07-13T04:49:32;5;5;
81640;PMS5003;71053;50.722;-1.944;2023-07-13T04:51:57;4;4;
81640;PMS5003;71053;50.722;-1.944;2023-07-13T04:54:23;6;6;
81640;PMS5003;71053;50.722;-1.944;2023-07-13T04:56:48;3;3;
81640;PMS5003;71053;50.722;-1.944;2023-07-13T04:59:13;4;4;
81640;PMS5003;71053;50.722;-1.944;2023-07-13T05:01:38;5;5;
81640;PMS5003;71053;50.722;-1.944;2023-07-13T05:04:03;3;3;
81640;PMS5003;71053;50.722;-1.944;2023-07-13T05:06:28;5;5;
81640;PMS5003;71053;50.722;-1.944;2023-07-13T05:08:54;3;3;
81640;PMS5003;71053;50.722;-1.944;2023-07-13T05:11:19;5;4;
81640;PMS5003;71053;50.722;-1.944;2023-07-13T05:13:44;5;5;
81640;PMS5003;71053;50.722;-1.944;2023-07-13T05:16:09;4;3;
81640;PMS5003;71053;50.722;-1.944;2023-07-13T05:18:34;4;3;
81640;PMS5003;71053;50.722;-1.944;2023-07-13T05:21:00;4;4;
81640;PMS5003;71053;50.722;-1.944;2023-07-13T05:23:25;4;4;
81640;PMS5003;71053;50.722;-1.944;2023-07-13T05:25:50;4;4;
81640;PMS5003;71053;50.722;-1.944;2023-07-13T05:28:15;5;5;
81640;PMS5003;71053;50.722;-1.944;2023-07-13T05:30:43;4;4;
81640;PMS5003;71053;50.722;-1.944;2023-07-13T05:33:05;4;4;
81640;PMS5003;71053;50.722;-1.944;2023-07-13T05:35:31;2;2;
81640;PMS5003;71053;50.722;-1.944;2023-07-13T05:37:56;4;4;
81640;PMS5003;71053;50.722;-1.944;2023-07-13T05:40:21;4;4;
81640;PMS5003;71053;50.722;-1.944;2023-07-13T05:42:47;4;4;
81640;PMS5003;71053;50.722;-1.944;2023-07-13T05:45:12;3;3;
81640;PMS5003;71053;50.722;-1.944;2023-07-13T05:47:37;6;6;
81640;PMS5003;71053;50.722;-1.944;2023-07-13T05:50:02;5;5;
81640;PMS5003;71053;50.722;-1.944;2023-07-13T05:52:27;5;4;
81640;PMS5003;71053;50.722;-1.944;2023-07-13T05:54:52;3;3;
81640;PMS5003;71053;50.722;-1.944;2023-07-13T05:57:18;2;2;
81640;PMS5003;71053;50.722;-1.944;2023-07-13T05:59:43;3;3;
81640;PMS5003;71053;50.722;-1.944;2023-07-13T06:02:08;4;4;
81640;PMS5003;71053;50.722;-1.944;2023-07-13T06:04:33;4;4;
81640;PMS5003;71053;50.722;-1.944;2023-07-13T06:06:58;5;5;
81640;PMS5003;71053;50.722;-1.944;2023-07-13T06:09:23;5;5;
81640;PMS5003;71053;50.722;-1.944;2023-07-13T06:11:49;5;5;
81640;PMS5003;71053;50.722;-1.944;2023-07-13T06:14:14;3;3;
81640;PMS5003;71053;50.722;-1.944;2023-07-13T06:16:39;4;4;
81640;PMS5003;71053;50.722;-1.944;2023-07-13T06:19:04;5;4;
81640;PMS5003;71053;50.722;-1.944;2023-07-13T06:21:29;4;3;
81640;PMS5003;71053;50.722;-1.944;2023-07-13T06:23:54;3;3;
81640;PMS5003;71053;50.722;-1.944;2023-07-13T06:26:20;4;4;
81640;PMS5003;71053;50.722;-1.944;2023-07-13T06:28:45;4;4;
81640;PMS5003;71053;50.722;-1.944;2023-07-13T06:31:10;5;5;
81640;PMS5003;71053;50.722;-1.944;2023-07-13T06:33:35;4;4;
81640;PMS5003;71053;50.722;-1.944;2023-07-13T06:36:01;5;4;
81640;PMS5003;71053;50.722;-1.944;2023-07-13T06:38:25;5;5;
81640;PMS5003;71053;50.722;-1.944;2023-07-13T06:40:51;6;5;
81640;PMS5003;71053;50.722;-1.944;2023-07-13T06:43:16;5;4;
81640;PMS5003;71053;50.722;-1.944;2023-07-13T06:45:43;5;5;
81640;PMS5003;71053;50.722;-1.944;2023-07-13T06:48:06;2;2;
81640;PMS5003;71053;50.722;-1.944;2023-07-13T06:50:31;4;4;
81640;PMS5003;71053;50.722;-1.944;2023-07-13T06:52:57;5;5;
81640;PMS5003;71053;50.722;-1.944;2023-07-13T06:55:22;5;4;
81640;PMS5003;71053;50.722;-1.944;2023-07-13T06:57:47;4;4;
81640;PMS5003;71053;50.722;-1.944;2023-07-13T07:00:13;5;5;
81640;PMS5003;71053;50.722;-1.944;2023-07-13T07:02:37;5;4;
81640;PMS5003;71053;50.722;-1.944;2023-07-13T07:05:03;5;5;
81640;PMS5003;71053;50.722;-1.944;2023-07-13T07:07:28;5;5;
81640;PMS5003;71053;50.722;-1.944;2023-07-13T07:09:53;4;4;
81640;PMS5003;71053;50.722;-1.944;2023-07-13T07:12:18;5;4;
81640;PMS5003;71053;50.722;-1.944;2023-07-13T07:14:44;4;4;
81640;PMS5003;71053;50.722;-1.944;2023-07-13T07:17:09;4;4;
81640;PMS5003;71053;50.722;-1.944;2023-07-13T07:19:34;5;5;
81640;PMS5003;71053;50.722;-1.944;2023-07-13T07:22:00;4;4;
81640;PMS5003;71053;50.722;-1.944;2023-07-13T07:24:25;3;3;
81640;PMS5003;71053;50.722;-1.944;2023-07-13T07:26:50;6;6;
81640;PMS5003;71053;50.722;-1.944;2023-07-13T07:29:15;4;4;
81640;PMS5003;71053;50.722;-1.944;2023-07-13T07:31:40;5;5;
81640;PMS5003;71053;50.722;-1.944;2023-07-13T07:34:05;4;4;
81640;PMS5003;71053;50.722;-1.944;2023-07-13T07:36:31;4;4;
81640;PMS5003;71053;50.722;-1.944;2023-07-13T07:38:56;3;3;
81640;PMS5003;71053;50.722;-1.944;2023-07-13T07:41:21;4;4;
81640;PMS5003;71053;50.722;-1.944;2023-07-13T07:43:46;3;3;
81640;PMS5003;71053;50.722;-1.944;2023-07-13T07:46:11;3;3;
81640;PMS5003;71053;50.722;-1.944;2023-07-13T07:48:36;2;2;
81640;PMS5003;71053;50.722;-1.944;2023-07-13T07:51:01;3;3;
81640;PMS5003;71053;50.722;-1.944;2023-07-13T07:53:27;1;1;
81640;PMS5003;71053;50.722;-1.944;2023-07-13T07:55:52;3;3;
81640;PMS5003;71053;50.722;-1.944;2023-07-13T07:58:17;2;1;
81640;PMS5003;71053;50.722;-1.944;2023-07-13T08:00:42;3;3;
81640;PMS5003;71053;50.722;-1.944;2023-07-13T08:03:08;3;3;
81640;PMS5003;71053;50.722;-1.944;2023-07-13T08:05:34;1;1;
81640;PMS5003;71053;50.722;-1.944;2023-07-13T08:07:58;0;0;
81640;PMS5003;71053;50.722;-1.944;2023-07-13T08:10:23;2;2;
81640;PMS5003;71053;50.722;-1.944;2023-07-13T08:12:48;1;1;
81640;PMS5003;71053;50.722;-1.944;2023-07-13T08:15:14;1;1;
81640;PMS5003;71053;50.722;-1.944;2023-07-13T08:17:38;2;2;
81640;PMS5003;71053;50.722;-1.944;2023-07-13T08:20:04;1;1;
81640;PMS5003;71053;50.722;-1.944;2023-07-13T08:22:28;1;1;
81640;PMS5003;71053;50.722;-1.944;2023-07-13T08:24:54;1;1;
81640;PMS5003;71053;50.722;-1.944;2023-07-13T08:27:19;1;1;
81640;PMS5003;71053;50.722;-1.944;2023-07-13T08:29:44;1;1;
81640;PMS5003;71053;50.722;-1.944;2023-07-13T08:32:09;0;0;
81640;PMS5003;71053;50.722;-1.944;2023-07-13T08:34:34;1;1;
81640;PMS5003;71053;50.722;-1.944;2023-07-13T08:36:59;1;1;
81640;PMS5003;71053;50.722;-1.944;2023-07-13T08:39:24;0;0;
81640;PMS5003;71053;50.722;-1.944;2023-07-13T08:41:50;2;2;
81640;PMS5003;71053;50.722;-1.944;2023-07-13T08:44:16;1;1;
81640;PMS5003;71053;50.722;-1.944;2023-07-13T08:46:40;2;2;
81640;PMS5003;71053;50.722;-1.944;2023-07-13T08:49:05;2;2;
81640;PMS5003;71053;50.722;-1.944;2023-07-13T08:51:33;1;1;
81640;PMS5003;71053;50.722;-1.944;2023-07-13T08:53:56;1;1;
81640;PMS5003;71053;50.722;-1.944;2023-07-13T08:56:21;1;1;
81640;PMS5003;71053;50.722;-1.944;2023-07-13T08:58:45;2;2;
81640;PMS5003;71053;50.722;-1.944;2023-07-13T09:01:12;1;1;
81640;PMS5003;71053;50.722;-1.944;2023-07-13T09:03:37;2;2;
81640;PMS5003;71053;50.722;-1.944;2023-07-13T09:06:01;1;1;
81640;PMS5003;71053;50.722;-1.944;2023-07-13T09:08:30;1;1;
81640;PMS5003;71053;50.722;-1.944;2023-07-13T09:10:52;2;2;
81640;PMS5003;71053;50.722;-1.944;2023-07-13T09:13:19;1;1;
81640;PMS5003;71053;50.722;-1.944;2023-07-13T09:15:41;3;3;
81640;PMS5003;71053;50.722;-1.944;2023-07-13T09:18:08;1;1;
81640;PMS5003;71053;50.722;-1.944;2023-07-13T09:20:31;3;2;
81640;PMS5003;71053;50.722;-1.944;2023-07-13T09:22:56;3;3;
81640;PMS5003;71053;50.722;-1.944;2023-07-13T09:25:24;4;3;
81640;PMS5003;71053;50.722;-1.944;2023-07-13T09:27:46;2;2;
81640;PMS5003;71053;50.722;-1.944;2023-07-13T09:32:36;3;3;
81640;PMS5003;71053;50.722;-1.944;2023-07-13T09:35:02;1;1;
81640;PMS5003;71053;50.722;-1.944;2023-07-13T09:37:28;3;3;
81640;PMS5003;71053;50.722;-1.944;2023-07-13T09:39:52;1;1;
81640;PMS5003;71053;50.722;-1.944;2023-07-13T09:42:18;3;2;
81640;PMS5003;71053;50.722;-1.944;2023-07-13T09:44:44;3;2;
81640;PMS5003;71053;50.722;-1.944;2023-07-13T09:49:33;2;2;
81640;PMS5003;71053;50.722;-1.944;2023-07-13T09:51:58;3;3;
81640;PMS5003;71053;50.722;-1.944;2023-07-13T09:54:23;1;1;
81640;PMS5003;71053;50.722;-1.944;2023-07-13T09:56:47;2;1;
81640;PMS5003;71053;50.722;-1.944;2023-07-13T10:01:38;3;3;
81640;PMS5003;71053;50.722;-1.944;2023-07-13T10:04:10;4;4;
81640;PMS5003;71053;50.722;-1.944;2023-07-13T10:06:27;2;2;
81640;PMS5003;71053;50.722;-1.944;2023-07-13T10:08:54;4;4;
81640;PMS5003;71053;50.722;-1.944;2023-07-13T10:11:18;5;5;
81640;PMS5003;71053;50.722;-1.944;2023-07-13T10:13:43;2;2;
81640;PMS5003;71053;50.722;-1.944;2023-07-13T10:16:08;3;3;
81640;PMS5003;71053;50.722;-1.944;2023-07-13T10:18:38;2;2;
81640;PMS5003;71053;50.722;-1.944;2023-07-13T10:21:00;4;4;
81640;PMS5003;71053;50.722;-1.944;2023-07-13T10:23:23;4;4;
81640;PMS5003;71053;50.722;-1.944;2023-07-13T10:25:48;4;4;
81640;PMS5003;71053;50.722;-1.944;2023-07-13T10:28:29;3;3;
81640;PMS5003;71053;50.722;-1.944;2023-07-13T10:30:39;2;2;
81640;PMS5003;71053;50.722;-1.944;2023-07-13T10:33:03;4;4;
81640;PMS5003;71053;50.722;-1.944;2023-07-13T10:35:28;3;3;
81640;PMS5003;71053;50.722;-1.944;2023-07-13T10:37:55;4;4;
81640;PMS5003;71053;50.722;-1.944;2023-07-13T10:40:19;3;3;
81640;PMS5003;71053;50.722;-1.944;2023-07-13T10:42:44;4;4;
81640;PMS5003;71053;50.722;-1.944;2023-07-13T10:45:12;4;3;
81640;PMS5003;71053;50.722;-1.944;2023-07-13T10:47:33;5;5;
81640;PMS5003;71053;50.722;-1.944;2023-07-13T10:49:58;2;2;
81640;PMS5003;71053;50.722;-1.944;2023-07-13T10:54:48;5;4;
81640;PMS5003;71053;50.722;-1.944;2023-07-13T10:57:15;5;4;
81640;PMS5003;71053;50.722;-1.944;2023-07-13T10:59:39;4;4;
81640;PMS5003;71053;50.722;-1.944;2023-07-13T11:02:10;4;4;
81640;PMS5003;71053;50.722;-1.944;2023-07-13T11:04:29;5;5;
81640;PMS5003;71053;50.722;-1.944;2023-07-13T11:06:56;5;5;
81640;PMS5003;71053;50.722;-1.944;2023-07-13T11:09:30;5;4;
81640;PMS5003;71053;50.722;-1.944;2023-07-13T11:11:44;7;6;
81640;PMS5003;71053;50.722;-1.944;2023-07-13T11:16:35;5;5;
81640;PMS5003;71053;50.722;-1.944;2023-07-13T11:21:25;6;5;
81640;PMS5003;71053;50.722;-1.944;2023-07-13T11:23:51;6;6;
81640;PMS5003;71053;50.722;-1.944;2023-07-13T11:28:41;6;6;
81640;PMS5003;71053;50.722;-1.944;2023-07-13T11:33:44;6;6;
81640;PMS5003;71053;50.722;-1.944;2023-07-13T11:35:58;6;5;
81640;PMS5003;71053;50.722;-1.944;2023-07-13T11:38:21;6;6;
81640;PMS5003;71053;50.722;-1.944;2023-07-13T11:40:46;5;5;
81640;PMS5003;71053;50.722;-1.944;2023-07-13T11:43:12;6;6;
81640;PMS5003;71053;50.722;-1.944;2023-07-13T11:45:36;6;6;
81640;PMS5003;71053;50.722;-1.944;2023-07-13T11:48:01;4;4;
81640;PMS5003;71053;50.722;-1.944;2023-07-13T11:50:26;6;6;
81640;PMS5003;71053;50.722;-1.944;2023-07-13T11:52:51;4;4;
81640;PMS5003;71053;50.722;-1.944;2023-07-13T11:55:17;6;6;
81640;PMS5003;71053;50.722;-1.944;2023-07-13T11:57:43;8;8;
81640;PMS5003;71053;50.722;-1.944;2023-07-13T12:00:11;5;5;
81640;PMS5003;71053;50.722;-1.944;2023-07-13T12:02:33;7;7;
81640;PMS5003;71053;50.722;-1.944;2023-07-13T12:04:57;6;6;
81640;PMS5003;71053;50.722;-1.944;2023-07-13T12:07:22;7;6;
81640;PMS5003;71053;50.722;-1.944;2023-07-13T12:09:47;3;3;
81640;PMS5003;71053;50.722;-1.944;2023-07-13T12:12:13;4;4;
81640;PMS5003;71053;50.722;-1.944;2023-07-13T12:14:39;19;19;
81640;PMS5003;71053;50.722;-1.944;2023-07-13T12:17:07;28;27;
81640;PMS5003;71053;50.722;-1.944;2023-07-13T12:19:30;13;13;
81640;PMS5003;71053;50.722;-1.944;2023-07-13T12:21:57;10;10;
81640;PMS5003;71053;50.722;-1.944;2023-07-13T12:24:21;17;17;
81640;PMS5003;71053;50.722;-1.944;2023-07-13T12:26:50;7;7;
81640;PMS5003;71053;50.722;-1.944;2023-07-13T12:29:15;10;10;
81640;PMS5003;71053;50.722;-1.944;2023-07-13T12:31:39;5;4;
81640;PMS5003;71053;50.722;-1.944;2023-07-13T12:34:06;8;8;
81640;PMS5003;71053;50.722;-1.944;2023-07-13T12:36:29;6;6;
81640;PMS5003;71053;50.722;-1.944;2023-07-13T12:38:53;8;7;
81640;PMS5003;71053;50.722;-1.944;2023-07-13T12:41:18;5;5;
81640;PMS5003;71053;50.722;-1.944;2023-07-13T12:43:43;4;4;
81640;PMS5003;71053;50.722;-1.944;2023-07-13T12:48:38;5;5;
81640;PMS5003;71053;50.722;-1.944;2023-07-13T12:51:00;3;3;
81640;PMS5003;71053;50.722;-1.944;2023-07-13T12:53:28;3;3;
81640;PMS5003;71053;50.722;-1.944;2023-07-13T12:55:49;4;3;
81640;PMS5003;71053;50.722;-1.944;2023-07-13T12:58:17;7;6;
81640;PMS5003;71053;50.722;-1.944;2023-07-13T13:00:39;5;5;
81640;PMS5003;71053;50.722;-1.944;2023-07-13T13:03:05;5;5;
81640;PMS5003;71053;50.722;-1.944;2023-07-13T13:05:29;3;3;
81640;PMS5003;71053;50.722;-1.944;2023-07-13T13:07:54;3;3;
81640;PMS5003;71053;50.722;-1.944;2023-07-13T13:10:19;3;2;
81640;PMS5003;71053;50.722;-1.944;2023-07-13T13:12:44;4;4;
81640;PMS5003;71053;50.722;-1.944;2023-07-13T13:15:09;5;5;
81640;PMS5003;71053;50.722;-1.944;2023-07-13T13:17:34;4;3;
81640;PMS5003;71053;50.722;-1.944;2023-07-13T13:19:59;4;3;
81640;PMS5003;71053;50.722;-1.944;2023-07-13T13:22:24;4;4;
81640;PMS5003;71053;50.722;-1.944;2023-07-13T13:24:49;3;3;
81640;PMS5003;71053;50.722;-1.944;2023-07-13T13:27:15;4;3;
81640;PMS5003;71053;50.722;-1.944;2023-07-13T13:29:39;4;3;
81640;PMS5003;71053;50.722;-1.944;2023-07-13T13:32:05;3;3;
81640;PMS5003;71053;50.722;-1.944;2023-07-13T13:34:29;3;3;
81640;PMS5003;71053;50.722;-1.944;2023-07-13T13:36:54;3;3;
81640;PMS5003;71053;50.722;-1.944;2023-07-13T13:41:44;4;4;
81640;PMS5003;71053;50.722;-1.944;2023-07-13T13:44:10;4;4;
81640;PMS5003;71053;50.722;-1.944;2023-07-13T13:46:34;2;2;
81640;PMS5003;71053;50.722;-1.944;2023-07-13T13:48:59;1;1;
81640;PMS5003;71053;50.722;-1.944;2023-07-13T13:51:24;3;3;
81640;PMS5003;71053;50.722;-1.944;2023-07-13T13:53:49;3;3;
81640;PMS5003;71053;50.722;-1.944;2023-07-13T13:56:17;3;3;
81640;PMS5003;71053;50.722;-1.944;2023-07-13T13:58:41;2;2;
81640;PMS5003;71053;50.722;-1.944;2023-07-13T14:03:33;3;3;
81640;PMS5003;71053;50.722;-1.944;2023-07-13T14:05:59;3;2;
81640;PMS5003;71053;50.722;-1.944;2023-07-13T14:08:25;2;1;
81640;PMS5003;71053;50.722;-1.944;2023-07-13T14:10:51;2;2;
81640;PMS5003;71053;50.722;-1.944;2023-07-13T14:13:17;3;3;
81640;PMS5003;71053;50.722;-1.944;2023-07-13T14:15:42;2;2;
81640;PMS5003;71053;50.722;-1.944;2023-07-13T14:18:08;3;2;
81640;PMS5003;71053;50.722;-1.944;2023-07-13T14:20:34;2;2;
81640;PMS5003;71053;50.722;-1.944;2023-07-13T14:23:00;3;3;
81640;PMS5003;71053;50.722;-1.944;2023-07-13T14:25:26;2;2;
81640;PMS5003;71053;50.722;-1.944;2023-07-13T14:27:53;3;3;
81640;PMS5003;71053;50.722;-1.944;2023-07-13T14:30:18;1;1;
81640;PMS5003;71053;50.722;-1.944;2023-07-13T14:32:43;0;0;
81640;PMS5003;71053;50.722;-1.944;2023-07-13T14:35:10;2;2;
81640;PMS5003;71053;50.722;-1.944;2023-07-13T14:37:35;2;2;
81640;PMS5003;71053;50.722;-1.944;2023-07-13T14:40:01;3;3;
81640;PMS5003;71053;50.722;-1.944;2023-07-13T14:42:26;1;1;
81640;PMS5003;71053;50.722;-1.944;2023-07-13T14:44:52;2;2;
81640;PMS5003;71053;50.722;-1.944;2023-07-13T14:47:18;3;3;
81640;PMS5003;71053;50.722;-1.944;2023-07-13T14:49:44;2;1;
81640;PMS5003;71053;50.722;-1.944;2023-07-13T14:52:11;2;2;
81640;PMS5003;71053;50.722;-1.944;2023-07-13T14:54:35;5;5;
81640;PMS5003;71053;50.722;-1.944;2023-07-13T14:57:00;5;5;
81640;PMS5003;71053;50.722;-1.944;2023-07-13T14:59:25;4;4;
81640;PMS5003;71053;50.722;-1.944;2023-07-13T15:01:50;14;11;
81640;PMS5003;71053;50.722;-1.944;2023-07-13T15:04:16;11;10;
81640;PMS5003;71053;50.722;-1.944;2023-07-13T15:09:07;5;5;
81640;PMS5003;71053;50.722;-1.944;2023-07-13T15:11:32;4;4;
81640;PMS5003;71053;50.722;-1.944;2023-07-13T15:13:57;6;5;
81640;PMS5003;71053;50.722;-1.944;2023-07-13T15:16:23;4;4;
81640;PMS5003;71053;50.722;-1.944;2023-07-13T15:18:47;3;3;
81640;PMS5003;71053;50.722;-1.944;2023-07-13T15:21:13;3;3;
81640;PMS5003;71053;50.722;-1.944;2023-07-13T15:23:37;5;4;
81640;PMS5003;71053;50.722;-1.944;2023-07-13T15:26:02;4;4;
81640;PMS5003;71053;50.722;-1.944;2023-07-13T15:28:28;3;3;
81640;PMS5003;71053;50.722;-1.944;2023-07-13T15:30:54;3;3;
81640;PMS5003;71053;50.722;-1.944;2023-07-13T15:33:20;3;3;
81640;PMS5003;71053;50.722;-1.944;2023-07-13T15:35:44;4;4;
81640;PMS5003;71053;50.722;-1.944;2023-07-13T15:40:34;6;6;
81640;PMS5003;71053;50.722;-1.944;2023-07-13T15:42:59;3;3;
81640;PMS5003;71053;50.722;-1.944;2023-07-13T15:45:24;4;3;
81640;PMS5003;71053;50.722;-1.944;2023-07-13T15:47:49;2;2;
81640;PMS5003;71053;50.722;-1.944;2023-07-13T15:50:14;4;4;
81640;PMS5003;71053;50.722;-1.944;2023-07-13T15:52:39;2;2;
81640;PMS5003;71053;50.722;-1.944;2023-07-13T15:55:04;3;3;
81640;PMS5003;71053;50.722;-1.944;2023-07-13T15:57:29;2;2;
81640;PMS5003;71053;50.722;-1.944;2023-07-13T15:59:54;3;3;
81640;PMS5003;71053;50.722;-1.944;2023-07-13T16:02:20;3;3;
81640;PMS5003;71053;50.722;-1.944;2023-07-13T16:04:44;2;2;
81640;PMS5003;71053;50.722;-1.944;2023-07-13T16:07:10;1;1;
81640;PMS5003;71053;50.722;-1.944;2023-07-13T16:09:34;4;4;
81640;PMS5003;71053;50.722;-1.944;2023-07-13T16:11:59;1;1;
81640;PMS5003;71053;50.722;-1.944;2023-07-13T16:14:24;3;3;
81640;PMS5003;71053;50.722;-1.944;2023-07-13T16:16:49;3;3;
81640;PMS5003;71053;50.722;-1.944;2023-07-13T16:19:14;3;3;
81640;PMS5003;71053;50.722;-1.944;2023-07-13T16:21:41;3;3;
81640;PMS5003;71053;50.722;-1.944;2023-07-13T16:24:05;4;4;
81640;PMS5003;71053;50.722;-1.944;2023-07-13T16:26:30;3;3;
81640;PMS5003;71053;50.722;-1.944;2023-07-13T16:28:55;3;3;
81640;PMS5003;71053;50.722;-1.944;2023-07-13T16:31:20;4;4;
81640;PMS5003;71053;50.722;-1.944;2023-07-13T16:33:45;2;2;
81640;PMS5003;71053;50.722;-1.944;2023-07-13T16:36:10;3;3;
81640;PMS5003;71053;50.722;-1.944;2023-07-13T16:38:35;4;4;
81640;PMS5003;71053;50.722;-1.944;2023-07-13T16:41:00;3;3;
81640;PMS5003;71053;50.722;-1.944;2023-07-13T16:43:25;4;4;
81640;PMS5003;71053;50.722;-1.944;2023-07-13T16:45:50;6;6;
81640;PMS5003;71053;50.722;-1.944;2023-07-13T16:48:16;3;3;
81640;PMS5003;71053;50.722;-1.944;2023-07-13T16:50:41;5;5;